^^
Datos históricos de la estación: Murcia-Puente Tocinos
Diario Informe para Julio 3, 2019 Unidades:  Ingés    Métrico   Ambas
Diario Semanal Mensual Anual
  Máxima: Mínima: Promedio:
Temperatura: 57.6 °F 42.1 °F 48.7 °F
Punto de rocio: 46.6 °F 35.2 °F 41.4 °F
Humedad: 90% 55.2% 76%
Velocidad viento: 6.4mph 0mph 3.4mph
Racha viento: 13mph - -
Viento- - SSE
Presión: 30.4 in 30.3 in -
Precipitación: 0 in    
 
 
Tabla de datos para Julio 3, 2019
Hora Temperatura Punto de rocio Presión Viento Velocidad viento Racha viento Humedad Intensidad lluvia(por hora) Nubes
00:04 48.9 °F 44.6 °F 30.3 in SSO 4.7 mph 8 mph 85% 0 in
00:09 48.9 °F 44.6 °F 30.3 in Sur 4.5 mph 6.9 mph 85% 0 in
00:14 48.7 °F 44.6 °F 30.3 in SSO 4.3 mph 7.6 mph 85.6% 0 in
00:19 48.7 °F 44.8 °F 30.3 in SSO 4.5 mph 8.1 mph 86% 0 in
00:24 48.7 °F 44.6 °F 30.3 in Sur 4.7 mph 7 mph 86% 0 in
00:29 48.6 °F 44.6 °F 30.3 in SSO 4 mph 5.9 mph 86% 0 in
00:34 48.6 °F 44.6 °F 30.3 in SSO 3.6 mph 6 mph 86% 0 in
00:39 48.6 °F 44.6 °F 30.3 in SSO 3.6 mph 6 mph 86% 0 in
00:44 48.7 °F 44.6 °F 30.3 in SSO 3.6 mph 5 mph 86% 0 in
00:49 48.6 °F 44.2 °F 30.3 in SSO 2.9 mph 5 mph 85% 0 in
00:54 48.2 °F 43.3 °F 30.3 in SSO 2.4 mph 5 mph 83.2% 0 in
00:59 47.5 °F 42.8 °F 30.3 in SSE 2.7 mph 5.2 mph 83.9% 0 in
01:04 46.8 °F 42.3 °F 30.3 in SSE 2.9 mph 5.9 mph 84.5% 0 in
01:09 46.2 °F 42.3 °F 30.3 in Sur 3.5 mph 6 mph 85.8% 0 in
01:14 46 °F 42.3 °F 30.3 in SSO 4 mph 6.2 mph 86.7% 0 in
01:19 46.2 °F 42.8 °F 30.3 in SO 4.2 mph 6.4 mph 87.9% 0 in
01:24 46.8 °F 43.3 °F 30.3 in SO 4.3 mph 8.5 mph 88.2% 0 in
01:29 47.1 °F 43.5 °F 30.3 in SO 4.8 mph 9 mph 87.5% 0 in
01:34 47.5 °F 43.7 °F 30.3 in SO 5.2 mph 7 mph 86.6% 0 in
01:39 47.5 °F 43.5 °F 30.3 in SO 4.5 mph 6 mph 86% 0 in
01:44 47.7 °F 43.5 °F 30.3 in SSO 4 mph 6 mph 85.4% 0 in
01:49 47.7 °F 43.3 °F 30.3 in SSO 4 mph 6.2 mph 85% 0 in
01:54 47.5 °F 43.2 °F 30.3 in SSO 4 mph 6.2 mph 85% 0 in
01:59 47.5 °F 43.2 °F 30.3 in Sur 4.2 mph 6 mph 85% 0 in
02:04 47.5 °F 43.2 °F 30.3 in Sur 4.3 mph 6 mph 85% 0 in
02:09 47.1 °F 42.8 °F 30.3 in Sur 4.1 mph 6 mph 85% 0 in
02:14 46.9 °F 42.8 °F 30.3 in Sur 4 mph 6 mph 85% 0 in
02:19 46.8 °F 42.6 °F 30.3 in Sur 3.5 mph 5 mph 85% 0 in
02:24 46.6 °F 42.3 °F 30.3 in Sur 3.1 mph 5 mph 85% 0 in
02:29 46.2 °F 42.1 °F 30.3 in Sur 2.4 mph 4.6 mph 85.6% 0 in
02:34 46 °F 42.1 °F 30.3 in Sur 2 mph 5 mph 86% 0 in
02:39 45.9 °F 42.3 °F 30.3 in SSO 2.7 mph 5 mph 86.7% 0 in
02:44 45.9 °F 42.3 °F 30.3 in SSO 3.1 mph 5 mph 87% 0 in
02:49 45.9 °F 42.1 °F 30.3 in Sur 3.1 mph 5 mph 86.6% 0 in
02:54 45.5 °F 41.5 °F 30.3 in SSE 3.1 mph 5 mph 86.2% 0 in
02:59 45.1 °F 41.2 °F 30.3 in SSE 3.1 mph 5 mph 86.3% 0 in
03:04 44.8 °F 41.2 °F 30.3 in SE 3.1 mph 5 mph 87% 0 in
03:09 44.4 °F 40.8 °F 30.3 in SSE 3.1 mph 5.2 mph 87% 0 in
03:14 44.2 °F 40.6 °F 30.3 in SSE 3.1 mph 5.4 mph 87.4% 0 in
03:19 44.1 °F 40.6 °F 30.3 in Sur 3.4 mph 5.4 mph 88% 0 in
03:24 43.9 °F 40.6 °F 30.3 in SSE 3.6 mph 6.9 mph 88.3% 0 in
03:29 43.7 °F 40.6 °F 30.3 in SSE 4 mph 7 mph 89% 0 in
03:34 43.5 °F 40.5 °F 30.3 in SSE 4.3 mph 7 mph 89% 0 in
03:39 43.5 °F 40.5 °F 30.3 in Sur 4.3 mph 6.9 mph 89% 0 in
03:44 43.3 °F 40.3 °F 30.3 in Sur 4.3 mph 7.4 mph 89% 0 in
03:49 43.3 °F 40.5 °F 30.3 in Sur 4.3 mph 7 mph 89.3% 0 in
03:54 43.3 °F 40.6 °F 30.3 in Sur 4.3 mph 6.2 mph 90% 0 in
03:59 43.3 °F 40.6 °F 30.3 in SSO 4.3 mph 7.4 mph 90% 0 in
04:04 43.3 °F 40.6 °F 30.3 in Sur 4.3 mph 7.6 mph 90% 0 in
04:09 43.3 °F 40.6 °F 30.3 in Sur 4.3 mph 8 mph 90% 0 in
04:14 43.3 °F 40.6 °F 30.3 in SSO 4.3 mph 7.4 mph 89.8% 0 in
04:19 43.5 °F 40.5 °F 30.3 in Sur 4.5 mph 8.1 mph 89% 0 in
04:24 43.5 °F 40.5 °F 30.3 in SSO 4.7 mph 9.2 mph 89% 0 in
04:29 43.5 °F 40.5 °F 30.3 in SSO 5.1 mph 9 mph 89% 0 in
04:34 43.5 °F 40.3 °F 30.3 in Sur 5.4 mph 8 mph 88% 0 in
04:39 43.5 °F 40.3 °F 30.3 in SSO 5 mph 8.1 mph 88% 0 in
04:44 43.5 °F 40.1 °F 30.3 in SSO 4.7 mph 8.1 mph 87.5% 0 in
04:49 43.5 °F 39.9 °F 30.3 in Sur 5 mph 8.1 mph 87% 0 in
04:54 43.5 °F 39.9 °F 30.3 in SSO 5.2 mph 9.2 mph 87% 0 in
04:59 43.5 °F 39.7 °F 30.3 in SSO 5.7 mph 9 mph 86.3% 0 in
05:04 43.5 °F 39.4 °F 30.3 in SSO 5.9 mph 9 mph 85.4% 0 in
05:09 43.5 °F 39.2 °F 30.3 in SSO 5.9 mph 8.7 mph 84.8% 0 in
05:14 43.7 °F 39.2 °F 30.3 in SSO 5.9 mph 10.7 mph 84% 0 in
05:19 43.9 °F 39 °F 30.3 in SSO 6.2 mph 11 mph 83% 0 in
05:24 43.9 °F 38.8 °F 30.3 in SSO 6.4 mph 8.1 mph 82.2% 0 in
05:29 43.9 °F 38.5 °F 30.3 in SSO 6.1 mph 9.7 mph 81.1% 0 in
05:34 43.7 °F 38.1 °F 30.3 in SSO 5.9 mph 10 mph 80.7% 0 in
05:39 43.5 °F 37.8 °F 30.3 in SSO 5.9 mph 9 mph 80% 0 in
05:44 43.3 °F 37.6 °F 30.3 in Sur 5.9 mph 7.6 mph 80% 0 in
05:49 43.3 °F 37.6 °F 30.3 in Sur 5.5 mph 8.5 mph 80% 0 in
05:54 43.2 °F 37.4 °F 30.3 in SSO 5.2 mph 9.2 mph 80% 0 in
05:59 43 °F 37.2 °F 30.3 in SSO 5.7 mph 9 mph 80% 0 in
06:04 43 °F 37.2 °F 30.3 in SSO 5.9 mph 8.1 mph 80% 0 in
06:09 42.8 °F 37 °F 30.3 in SSO 5.6 mph 9.2 mph 80% 0 in
06:14 42.6 °F 36.9 °F 30.3 in SSO 5.4 mph 9 mph 80% 0 in
06:19 42.4 °F 36.7 °F 30.3 in SSO 5.9 mph 9.2 mph 80% 0 in
06:24 42.4 °F 36.7 °F 30.3 in SSO 6.2 mph 10.2 mph 80% 0 in
06:29 42.4 °F 36.7 °F 30.3 in SSO 6.3 mph 10.4 mph 80.1% 0 in
06:34 42.4 °F 36.9 °F 30.3 in SSO 6.4 mph 10 mph 81% 0 in
06:39 42.3 °F 36.9 °F 30.3 in SSO 6.4 mph 10 mph 81% 0 in
06:44 42.3 °F 37 °F 30.3 in Sur 6.4 mph 10 mph 81.5% 0 in
06:49 42.1 °F 37 °F 30.3 in SSO 6.3 mph 10.4 mph 82% 0 in
06:54 42.1 °F 37 °F 30.3 in SSO 6.2 mph 10.4 mph 82% 0 in
06:59 42.1 °F 37 °F 30.3 in Sur 6.3 mph 10.4 mph 82% 0 in
07:04 42.1 °F 37 °F 30.3 in SSO 6.4 mph 11.5 mph 82% 0 in
07:09 42.1 °F 37 °F 30.3 in SSE 6.3 mph 12 mph 81.9% 0 in
07:14 42.3 °F 36.7 °F 30.3 in SSO 6.2 mph 10.4 mph 80.9% 0 in
07:19 42.3 °F 36.5 °F 30.3 in SSO 5.7 mph 10 mph 79.7% 0 in
07:24 42.3 °F 36.3 °F 30.3 in Sur 5.4 mph 10.7 mph 79% 0 in
07:29 42.4 °F 36.3 °F 30.3 in SSO 5.9 mph 11 mph 78.7% 0 in
07:34 42.4 °F 36.1 °F 30.3 in SSO 6.2 mph 10 mph 78% 0 in
07:39 42.3 °F 36 °F 30.3 in SSO 5.7 mph 9.7 mph 78% 0 in
07:44 42.4 °F 35.8 °F 30.3 in SO 5.4 mph 11.4 mph 77.3% 0 in
07:49 42.6 °F 35.6 °F 30.3 in OSO 5.7 mph 12 mph 76% 0 in
07:54 42.8 °F 35.6 °F 30.3 in OSO 5.9 mph 12 mph 75.6% 0 in
07:59 43 °F 35.6 °F 30.3 in SSO 5.1 mph 12.7 mph 74.8% 0 in
08:04 43.2 °F 35.4 °F 30.3 in SSO 4.7 mph 13 mph 74% 0 in
08:09 43.2 °F 35.4 °F 30.3 in SSO 5 mph 10 mph 74% 0 in
08:14 43.2 °F 35.4 °F 30.3 in Sur 5.2 mph 9 mph 74% 0 in
08:19 43 °F 35.4 °F 30.4 in SSO 4.9 mph 8.1 mph 74.6% 0 in
08:24 42.6 °F 35.2 °F 30.4 in Sur 4.7 mph 8.1 mph 75.1% 0 in
08:29 42.6 °F 35.6 °F 30.4 in Sur 4.5 mph 7 mph 76% 0 in
08:34 42.6 °F 35.6 °F 30.4 in Sur 4.3 mph 7.4 mph 76% 0 in
08:39 42.6 °F 35.6 °F 30.4 in Sur 4.3 mph 7 mph 76% 0 in
08:44 42.8 °F 35.8 °F 30.4 in Sur 4.3 mph 6.9 mph 76% 0 in
08:49 42.6 °F 35.6 °F 30.4 in Sur 4.3 mph 7 mph 76% 0 in
08:54 42.4 °F 35.6 °F 30.4 in Sur 4.3 mph 7 mph 76.8% 0 in
08:59 42.3 °F 35.6 °F 30.4 in SSO 4.3 mph 6.2 mph 77% 0 in
09:04 42.3 °F 35.8 °F 30.4 in SSE 4.3 mph 6.2 mph 77.4% 0 in
09:09 42.3 °F 35.8 °F 30.4 in Sur 4.1 mph 6 mph 77.7% 0 in
09:14 42.4 °F 36 °F 30.4 in Sur 4 mph 6.9 mph 78% 0 in
09:19 42.4 °F 36 °F 30.4 in Sur 4.2 mph 7 mph 77.6% 0 in
09:24 42.6 °F 36.1 °F 30.4 in SSO 4.3 mph 6 mph 77.4% 0 in
09:29 43 °F 36.3 °F 30.4 in Sur 3.9 mph 5.9 mph 77% 0 in
09:34 43.3 °F 36.3 °F 30.4 in SSO 3.6 mph 6.2 mph 76% 0 in
09:39 43.5 °F 36.3 °F 30.4 in Sur 3.9 mph 6.2 mph 75.6% 0 in
09:44 43.7 °F 36.3 °F 30.4 in SSO 4 mph 6.4 mph 75% 0 in
09:49 43.9 °F 36.5 °F 30.4 in SSO 4.4 mph 8.1 mph 75% 0 in
09:54 43.9 °F 36.3 °F 30.4 in SSO 4.7 mph 8 mph 74.6% 0 in
09:59 44.1 °F 36.3 °F 30.4 in Sur 4.7 mph 7 mph 73.8% 0 in
10:04 44.1 °F 36 °F 30.4 in SSO 4.7 mph 8.1 mph 73% 0 in
10:09 44.2 °F 36.1 °F 30.4 in SSO 5 mph 8.5 mph 73% 0 in
10:14 44.6 °F 36.3 °F 30.4 in SSO 5.2 mph 9 mph 72.7% 0 in
10:19 45 °F 36.3 °F 30.4 in SSO 4.5 mph 6.9 mph 71.5% 0 in
10:24 45.1 °F 36.1 °F 30.4 in SSO 4 mph 7.4 mph 70.6% 0 in
10:29 45.7 °F 36.5 °F 30.4 in Sur 4.2 mph 7 mph 70% 0 in
10:34 46 °F 36.3 °F 30.4 in SSO 4.3 mph 7 mph 68.8% 0 in
10:39 46.2 °F 36.1 °F 30.4 in SSO 4.2 mph 7 mph 68% 0 in
10:44 46.4 °F 36.5 °F 30.4 in SSO 4 mph 7.6 mph 68% 0 in
10:49 46.8 °F 37 °F 30.4 in SSO 4.4 mph 8.1 mph 68.8% 0 in
10:54 46.9 °F 37.2 °F 30.4 in SSO 4.7 mph 7 mph 69% 0 in
10:59 47.3 °F 37.6 °F 30.4 in Sur 4.7 mph 7.6 mph 69% 0 in
11:04 47.5 °F 37.2 °F 30.4 in SSO 4.7 mph 8.5 mph 67.5% 0 in
11:09 47.7 °F 36.9 °F 30.4 in SSO 5 mph 9 mph 66.3% 0 in
11:14 47.7 °F 36.9 °F 30.4 in SSO 5.2 mph 6 mph 66% 0 in
11:19 47.8 °F 36.9 °F 30.4 in SSO 3.9 mph 6.9 mph 65.2% 0 in
11:24 48.2 °F 36.9 °F 30.4 in SSO 2.9 mph 7 mph 64.9% 0 in
11:29 48.7 °F 37.2 °F 30.4 in SSO 3.5 mph 7 mph 64.6% 0 in
11:34 49.3 °F 37.6 °F 30.4 in Sur 4 mph 8.1 mph 64% 0 in
11:39 49.8 °F 37.8 °F 30.4 in SSO 4.4 mph 8.1 mph 63% 0 in
11:44 50 °F 37.9 °F 30.4 in SSO 4.7 mph 8 mph 63% 0 in
11:49 50.2 °F 38.1 °F 30.4 in SSO 4.7 mph 7.4 mph 63% 0 in
11:54 50.4 °F 37.9 °F 30.4 in SSO 4.7 mph 7 mph 62.3% 0 in
11:59 50.5 °F 37.9 °F 30.4 in SO 5 mph 8.5 mph 61.9% 0 in
12:04 50.5 °F 37.9 °F 30.4 in SSO 5.2 mph 9 mph 62% 0 in
12:09 50.5 °F 37.9 °F 30.4 in SSO 4.7 mph 8.7 mph 62% 0 in
12:14 50.7 °F 38.3 °F 30.4 in SSO 4.3 mph 9.2 mph 62% 0 in
12:19 51.3 °F 38.5 °F 30.4 in SSO 4.3 mph 7 mph 61.5% 0 in
12:24 52 °F 38.3 °F 30.4 in SO 4.3 mph 7 mph 59.7% 0 in
12:29 52.3 °F 38.5 °F 30.4 in Sur 4.3 mph 8.1 mph 59.1% 0 in
12:34 52.5 °F 38.5 °F 30.4 in SSO 4.3 mph 8.1 mph 58.3% 0 in
12:39 52.9 °F 38.8 °F 30.4 in Sur 4.5 mph 8.1 mph 58.5% 0 in
12:44 53.2 °F 38.7 °F 30.4 in Sur 4.7 mph 8 mph 57.8% 0 in
12:49 53.4 °F 38.7 °F 30.4 in Sur 4.7 mph 7 mph 57.3% 0 in
12:54 53.6 °F 38.8 °F 30.4 in Sur 4.7 mph 8.5 mph 57.4% 0 in
12:59 53.8 °F 38.8 °F 30.4 in Sur 4.4 mph 9 mph 56.8% 0 in
13:04 54.1 °F 39.2 °F 30.4 in Sur 4.3 mph 6 mph 56.8% 0 in
13:09 54.3 °F 39.2 °F 30.4 in Sur 3.9 mph 6.2 mph 56.5% 0 in
13:14 54.7 °F 39.2 °F 30.4 in Sur 3.6 mph 6 mph 55.7% 0 in
13:19 54.9 °F 39.4 °F 30.4 in SSO 3.3 mph 6 mph 55.8% 0 in
13:24 55 °F 39.7 °F 30.4 in Sur 3.1 mph 6 mph 56% 0 in
13:29 55.4 °F 39.6 °F 30.4 in Sur 3.6 mph 7.4 mph 55.2% 0 in
13:34 55.4 °F 39.7 °F 30.4 in SSE 4 mph 7 mph 55.3% 0 in
13:39 55.2 °F 39.9 °F 30.4 in SSO 4.4 mph 7 mph 56.1% 0 in
13:44 55.2 °F 39.9 °F 30.4 in SSO 4.7 mph 7 mph 56.2% 0 in
13:49 55.4 °F 40.3 °F 30.4 in SSE 4.3 mph 7 mph 56.9% 0 in
13:54 55.6 °F 40.3 °F 30.4 in SE 4 mph 6.9 mph 56.5% 0 in
13:59 55.8 °F 40.6 °F 30.4 in SSE 4 mph 7 mph 57% 0 in
14:04 55.6 °F 40.8 °F 30.4 in SE 4 mph 7 mph 57.7% 0 in
14:09 55.6 °F 41 °F 30.3 in SSE 4 mph 6.2 mph 58% 0 in
14:14 55.4 °F 41 °F 30.3 in SE 4 mph 6.9 mph 58.6% 0 in
14:19 55.4 °F 41.4 °F 30.3 in SE 4 mph 7 mph 59% 0 in
14:24 55.6 °F 41.7 °F 30.3 in SE 4 mph 6 mph 59.8% 0 in
14:29 55.6 °F 41.9 °F 30.3 in SE 3.8 mph 6 mph 60% 0 in
14:34 55.6 °F 41.9 °F 30.3 in SE 3.6 mph 6 mph 60% 0 in
14:39 55.8 °F 42.4 °F 30.3 in SE 2.9 mph 6 mph 60.9% 0 in
14:44 55.8 °F 42.6 °F 30.3 in SE 2.4 mph 5 mph 61% 0 in
14:49 55.9 °F 42.6 °F 30.3 in SSE 2.4 mph 5 mph 61% 0 in
14:54 55.9 °F 42.6 °F 30.3 in SSE 2.4 mph 5.2 mph 61% 0 in
14:59 55.8 °F 42.4 °F 30.3 in SSE 2.9 mph 5.8 mph 61.1% 0 in
15:04 55.6 °F 42.8 °F 30.3 in SSE 3.1 mph 6 mph 62% 0 in
15:09 55.8 °F 43 °F 30.3 in SSE 2.3 mph 5 mph 62% 0 in
15:14 55.9 °F 43 °F 30.3 in SSE 1.8 mph   61.7% 0 in
15:19 55.9 °F 43 °F 30.3 in SSE 0.7 mph 4.6 mph 61.8% 0 in
15:24 56.1 °F 43.3 °F 30.3 in Calm   5 mph 62% 0 in
15:29 56.1 °F 43.3 °F 30.3 in ENE 1.1 mph 5 mph 62% 0 in
15:34 56.1 °F 43.3 °F 30.3 in ENE 1.8 mph 5 mph 62% 0 in
15:39 56.5 °F 43.5 °F 30.3 in ENE 0.7 mph 4.6 mph 62% 0 in
15:44 56.5 °F 43.5 °F 30.3 in Calm   5 mph 62% 0 in
15:49 56.5 °F 43.7 °F 30.3 in ENE 1.2 mph 4.7 mph 62.5% 0 in
15:54 56.5 °F 44.1 °F 30.3 in Este 2 mph 5.2 mph 63% 0 in
15:59 56.5 °F 44.1 °F 30.3 in Este 2.6 mph 5 mph 63% 0 in
16:04 56.7 °F 44.2 °F 30.3 in Este 2.9 mph 3.6 mph 63% 0 in
16:09 56.7 °F 44.2 °F 30.3 in Este 2.2 mph 4.6 mph 63% 0 in
16:14 56.7 °F 44.4 °F 30.3 in ENE 1.8 mph 5 mph 63.5% 0 in
16:19 56.8 °F 44.8 °F 30.3 in ENE 1.6 mph 4.7 mph 64% 0 in
16:24 57 °F 45 °F 30.3 in ENE 1.4 mph 5 mph 64% 0 in
16:29 57.2 °F 45.3 °F 30.3 in ENE 0.6 mph 5.9 mph 64.3% 0 in
16:34 57.4 °F 45.7 °F 30.3 in Calm   6.4 mph 64.9% 0 in
16:39 57.6 °F 45.9 °F 30.3 in North 2.4 mph 7 mph 65% 0 in
16:44 57.6 °F 45.9 °F 30.3 in NNE 4 mph 6 mph 65% 0 in
16:49 57.6 °F 45.9 °F 30.3 in ENE 3.4 mph 5 mph 65% 0 in
16:54 57.6 °F 45.9 °F 30.3 in NE 2.9 mph 5 mph 65% 0 in
16:59 57.6 °F 45.9 °F 30.3 in NE 2.5 mph 5 mph 65% 0 in
17:04 57.4 °F 45.9 °F 30.3 in NE 2.4 mph 5.2 mph 65.4% 0 in
17:09 57.4 °F 46 °F 30.3 in NNE 2.4 mph 5 mph 66% 0 in
17:14 57.2 °F 46 °F 30.3 in NE 2.4 mph 5.9 mph 66.2% 0 in
17:19 57 °F 46.2 °F 30.3 in NE 2.7 mph 6 mph 67% 0 in
17:24 57 °F 46.2 °F 30.3 in NE 2.9 mph 5 mph 67% 0 in
17:29 56.8 °F 46 °F 30.3 in NE 2.2 mph 3.5 mph 67% 0 in
17:34 56.8 °F 46.4 °F 30.3 in NE 1.8 mph 4.6 mph 68% 0 in
17:39 56.7 °F 46 °F 30.3 in NE 2.2 mph 5 mph 68% 0 in
17:44 56.5 °F 46 °F 30.3 in NE 2.4 mph 5 mph 68.1% 0 in
17:49 56.1 °F 46.2 °F 30.3 in NE 2.4 mph 4 mph 69% 0 in
17:54 56.1 °F 46 °F 30.3 in NE 2.4 mph 4 mph 69% 0 in
17:59 55.9 °F 46 °F 30.3 in NE 2.1 mph 4.6 mph 69.4% 0 in
18:04 55.9 °F 46.2 °F 30.3 in NE 2 mph 5 mph 70% 0 in
18:09 55.8 °F 46 °F 30.3 in ENE 2.5 mph 5 mph 70% 0 in
18:14 55.6 °F 46.2 °F 30.3 in ESE 2.9 mph 5 mph 70.8% 0 in
18:19 55.2 °F 46 °F 30.3 in ESE 2.4 mph 4 mph 71.3% 0 in
18:24 55 °F 46.2 °F 30.3 in ESE 2 mph 4 mph 72% 0 in
18:29 55 °F 46.2 °F 30.3 in ESE 1.6 mph 3 mph 72% 0 in
18:34 54.9 °F 46 °F 30.4 in ESE 1.4 mph 2 mph 72% 0 in
18:39 54.9 °F 46 °F 30.4 in ESE 0.6 mph   72.5% 0 in
18:44 54.7 °F 46.2 °F 30.4 in Calm   2.4 mph 73% 0 in
18:49 54.5 °F 45.9 °F 30.4 in ESE 0.9 mph 4.6 mph 73% 0 in
18:54 54.1 °F 45.7 °F 30.4 in ESE 1.4 mph 5 mph 73% 0 in
18:59 54 °F 45.7 °F 30.4 in ESE 1.7 mph 4 mph 73.4% 0 in
19:04 53.8 °F 45.7 °F 30.4 in ESE 1.8 mph   74% 0 in
19:09 53.4 °F 45.5 °F 30.4 in ESE 0.7 mph   74.3% 0 in
19:14 53.2 °F 45.5 °F 30.4 in Calm     75% 0 in
19:19 53.1 °F 45.7 °F 30.4 in Calm   1.4 mph 76.4% 0 in
19:24 52.7 °F 45.7 °F 30.4 in Calm   2.9 mph 76.8% 0 in
19:29 52.3 °F 45.7 °F 30.4 in ESE 0.8 mph 3 mph 78% 0 in
19:34 52.3 °F 46 °F 30.4 in ESE 1.4 mph 3.5 mph 79.1% 0 in
19:39 52.2 °F 46.2 °F 30.4 in ESE 1.6 mph 3.6 mph 80.2% 0 in
19:44 52 °F 46.2 °F 30.4 in ESE 1.8 mph 4 mph 81% 0 in
19:49 52 °F 46.6 °F 30.4 in ESE 1.9 mph 5 mph 81.9% 0 in
19:54 52 °F 46.6 °F 30.4 in ESE 2 mph 7.4 mph 82% 0 in
19:59 51.6 °F 46.2 °F 30.4 in ESE 3.1 mph 7 mph 82% 0 in
20:04 51.3 °F 46.2 °F 30.4 in ESE 3.6 mph 7 mph 82.9% 0 in
20:09 51.1 °F 46.2 °F 30.4 in ESE 2.9 mph 5 mph 83.2% 0 in
20:14 50.9 °F 46.2 °F 30.4 in Este 2.4 mph 5.2 mph 84% 0 in
20:19 50.7 °F 46.4 °F 30.4 in Este 2.7 mph 5.2 mph 85% 0 in
20:24 50.7 °F 46.4 °F 30.4 in Este 2.9 mph 5 mph 85% 0 in
20:29 50.7 °F 46.4 °F 30.4 in ESE 2.6 mph 5 mph 85% 0 in
20:34 50.5 °F 46.2 °F 30.4 in ESE 2.4 mph 4.6 mph 85% 0 in
20:39 50.5 °F 46.2 °F 30.4 in ESE 2.2 mph 5 mph 85% 0 in
20:44 50.4 °F 46 °F 30.4 in ESE 2 mph 5 mph 85% 0 in
20:49 50.2 °F 45.9 °F 30.4 in ESE 2.2 mph 5.2 mph 85% 0 in
20:54 50 °F 45.7 °F 30.4 in ESE 2.4 mph 5 mph 85% 0 in
20:59 49.6 °F 45.7 °F 30.4 in ESE 2.1 mph 3.6 mph 85.9% 0 in
21:04 49.6 °F 45.5 °F 30.4 in ESE 2 mph 4 mph 86% 0 in
21:09 49.5 °F 45.3 °F 30.4 in ESE 1.6 mph 3.5 mph 86% 0 in
21:14 49.3 °F 45.3 °F 30.4 in ESE 1.4 mph 2 mph 86% 0 in
21:19 48.9 °F 45 °F 30.4 in ESE 0.6 mph   86% 0 in
21:24 48.7 °F 44.8 °F 30.4 in Calm     86% 0 in
21:29 48.7 °F 45 °F 30.4 in Calm     86.7% 0 in
21:34 48.6 °F 44.8 °F 30.4 in Calm     87% 0 in
21:39 48.4 °F 44.6 °F 30.4 in Calm     87% 0 in
21:44 48.2 °F 44.6 °F 30.4 in Calm     87.2% 0 in
21:49 48 °F 44.6 °F 30.4 in Calm     88% 0 in
21:54 48 °F 44.4 °F 30.4 in Calm   2.9 mph 87.3% 0 in
21:59 47.7 °F 44.1 °F 30.4 in SE 0.9 mph 4.7 mph 87% 0 in
22:04 47.5 °F 43.7 °F 30.4 in SSE 1.4 mph 5.8 mph 87% 0 in
22:09 47.3 °F 43.5 °F 30.4 in SSE 2.3 mph 6 mph 87% 0 in
22:14 47.1 °F 43.3 °F 30.4 in SSE 2.9 mph 4 mph 87% 0 in
22:19 47.1 °F 43.3 °F 30.4 in SSE 2.2 mph 3.5 mph 87% 0 in
22:24 47.1 °F 43.3 °F 30.4 in SSE 1.8 mph 5.2 mph 87% 0 in
22:29 47.3 °F 43.5 °F 30.4 in SSE 1.8 mph 5 mph 87% 0 in
22:34 47.3 °F 43.5 °F 30.4 in SSE 1.8 mph 4.6 mph 87% 0 in
22:39 47.5 °F 43.9 °F 30.4 in SSE 1.6 mph 5 mph 87% 0 in
22:44 47.5 °F 43.5 °F 30.4 in SSE 1.4 mph 2 mph 86.2% 0 in
22:49 47.5 °F 43.5 °F 30.4 in SSE 0.6 mph   86% 0 in
22:54 47.3 °F 43.3 °F 30.4 in Calm     86% 0 in
22:59 47.1 °F 43.2 °F 30.4 in Calm     86% 0 in
23:04 46.9 °F 43 °F 30.4 in Calm     86% 0 in
23:09 46.8 °F 42.8 °F 30.4 in Calm     86% 0 in
23:14 46.6 °F 42.6 °F 30.4 in Calm     86% 0 in
23:19 46.4 °F 42.4 °F 30.4 in Calm     86.2% 0 in
23:24 46.2 °F 42.6 °F 30.4 in Calm   2.9 mph 87.1% 0 in
23:29 46.2 °F 43 °F 30.4 in Calm   3 mph 88% 0 in
23:34 46.2 °F 43 °F 30.4 in Calm   2.9 mph 88% 0 in
23:39 46.2 °F 42.8 °F 30.4 in SE 0.9 mph 4.6 mph 88% 0 in
23:44 46 °F 42.6 °F 30.4 in SE 1.4 mph 5 mph 88% 0 in
23:49 45.9 °F 42.6 °F 30.4 in SE 2 mph 5 mph 88% 0 in
23:54 45.9 °F 42.3 °F 30.4 in Sur 2.4 mph 5.8 mph 87.3% 0 in
23:59 45.7 °F 42.3 °F 30.4 in Sur 3.2 mph 6 mph 87.7% 0 in
Murcia-Puente Tocinos, Espa?a
Compliments of Weather Underground - 3 mb

La estación de MeteoMurcia.com, publica sus datos en los siguientes proyectos:

Weather Underground PWS IMURCIAP2 Meteoclimatic www.awekas.at

W3Counter
Web Analytics